Annaba, Annaba Rabah Bitat Airport (DABB)

NameAnnaba Rabah Bitat Airport
CityAnnaba
CountryAlgeria
ICAODABB
IATAAAE
Altitude5 m
CoordinatesGoogle Map
Live Air TrafficLiveATC.net
METARDABB 251700Z 05007KT 9999 SCT040 BKN100 18/16 Q1008
2020-04-25 17:00:00 Wind: Northeast (50°) 3.6 m/s - Visibility: > 10000 m - Temperature: 18 °C - Dew point: 16 °C - Humidity: 88.2% - Pressure: 1008 hPa

Sorry, no flights used the airport in this database.